createdAt,value
2017-12-03T00:00:14.282Z,87.80
2017-12-03T00:02:44.018Z,87.70
2017-12-03T00:05:13.664Z,87.70
2017-12-03T00:07:43.632Z,87.80
2017-12-03T00:10:13.346Z,87.90
2017-12-03T00:12:44.194Z,88.00
2017-12-03T00:15:14.806Z,88.30
2017-12-03T00:17:44.517Z,87.90
2017-12-03T00:20:15.688Z,88.10
2017-12-03T00:22:45.577Z,88.00
2017-12-03T00:25:16.102Z,88.00
2017-12-03T00:27:46.016Z,88.00
2017-12-03T00:30:16.072Z,88.00
2017-12-03T00:32:46.868Z,88.10
2017-12-03T00:35:17.007Z,88.10
2017-12-03T00:37:46.629Z,88.10
2017-12-03T00:40:17.876Z,88.30
2017-12-03T00:42:48.369Z,88.10
2017-12-03T00:45:18.623Z,88.10
2017-12-03T00:47:49.015Z,88.20
2017-12-03T00:50:18.940Z,88.30
2017-12-03T00:52:48.894Z,88.30
2017-12-03T00:55:18.555Z,88.30
2017-12-03T00:57:48.643Z,88.20
2017-12-03T01:00:18.393Z,88.20
2017-12-03T01:02:47.949Z,88.30
2017-12-03T01:05:18.710Z,88.20
2017-12-03T01:07:49.108Z,88.20
2017-12-03T01:10:18.993Z,88.30
2017-12-03T01:12:49.603Z,88.30
2017-12-03T01:15:19.307Z,88.30
2017-12-03T01:17:49.202Z,88.30
2017-12-03T01:20:19.179Z,88.20
2017-12-03T01:22:48.980Z,88.10
2017-12-03T01:25:19.533Z,88.40
2017-12-03T01:27:50.111Z,88.40
2017-12-03T01:30:19.810Z,88.30
2017-12-03T01:32:49.444Z,88.40
2017-12-03T01:35:18.960Z,88.40
2017-12-03T01:37:48.938Z,88.90
2017-12-03T01:40:18.647Z,88.50
2017-12-03T01:42:48.284Z,88.50
2017-12-03T01:45:18.799Z,88.60
2017-12-03T01:47:48.393Z,88.60
2017-12-03T01:50:18.044Z,88.50
2017-12-03T01:52:47.602Z,88.50
2017-12-03T01:55:17.517Z,88.60
2017-12-03T01:57:47.845Z,88.50
2017-12-03T02:00:17.971Z,88.70
2017-12-03T02:02:47.669Z,88.80
2017-12-03T02:05:17.315Z,89.00
2017-12-03T02:07:48.317Z,88.80
2017-12-03T02:10:17.905Z,88.80
2017-12-03T02:12:47.530Z,88.90
2017-12-03T02:15:17.448Z,88.70
2017-12-03T02:17:47.281Z,88.40
2017-12-03T02:20:18.235Z,88.90
2017-12-03T02:22:48.787Z,88.60
2017-12-03T02:25:18.543Z,88.50
2017-12-03T02:27:48.245Z,88.50
2017-12-03T02:30:17.892Z,88.80
2017-12-03T02:32:47.992Z,89.00
2017-12-03T02:35:18.601Z,88.70
2017-12-03T02:37:48.310Z,88.70
2017-12-03T02:40:18.828Z,88.70
2017-12-03T02:42:48.553Z,88.70
2017-12-03T02:45:18.390Z,88.60
2017-12-03T02:47:48.991Z,88.70
2017-12-03T02:50:18.710Z,88.60
2017-12-03T02:52:48.264Z,88.60
2017-12-03T02:55:17.841Z,88.50
2017-12-03T02:57:48.439Z,88.50
2017-12-03T03:00:18.080Z,88.40
2017-12-03T03:02:48.603Z,88.60
2017-12-03T03:05:18.236Z,88.50
2017-12-03T03:07:47.809Z,88.50
2017-12-03T03:10:18.730Z,88.60
2017-12-03T03:12:48.224Z,88.60
2017-12-03T03:15:17.963Z,88.70
2017-12-03T03:17:48.501Z,88.70
2017-12-03T03:20:18.285Z,88.60
2017-12-03T03:22:48.567Z,88.60
2017-12-03T03:25:18.242Z,88.60
2017-12-03T03:27:48.642Z,88.80
2017-12-03T03:30:18.353Z,88.70
2017-12-03T03:32:48.059Z,88.70
2017-12-03T03:35:17.689Z,88.50
2017-12-03T03:37:48.095Z,88.60
2017-12-03T03:40:18.279Z,88.60
2017-12-03T03:42:47.972Z,88.80
2017-12-03T03:45:17.841Z,88.80
2017-12-03T03:47:47.508Z,88.80
2017-12-03T03:50:17.051Z,88.70
2017-12-03T03:52:46.758Z,88.90
2017-12-03T03:55:16.600Z,88.90
2017-12-03T03:57:46.996Z,89.20
2017-12-03T04:00:20.181Z,89.20
2017-12-03T04:02:50.102Z,89.20
2017-12-03T04:05:20.015Z,88.90
2017-12-03T04:07:49.930Z,89.10
2017-12-03T04:10:19.572Z,89.40
2017-12-03T04:12:50.301Z,89.40
2017-12-03T04:15:20.905Z,89.30
2017-12-03T04:17:50.534Z,89.30
2017-12-03T04:20:20.250Z,89.30
2017-12-03T04:22:50.775Z,89.60
2017-12-03T04:25:20.480Z,89.60
2017-12-03T04:27:50.266Z,89.70
2017-12-03T04:30:19.853Z,89.60
2017-12-03T04:32:50.097Z,90.00
2017-12-03T04:35:19.693Z,90.00
2017-12-03T04:37:49.428Z,90.00
2017-12-03T04:40:19.147Z,90.10
2017-12-03T04:42:48.965Z,90.00
2017-12-03T04:45:18.598Z,90.10
2017-12-03T04:47:48.786Z,90.10
2017-12-03T04:50:18.472Z,90.20
2017-12-03T04:52:49.643Z,90.10
2017-12-03T04:55:20.192Z,90.10
2017-12-03T04:57:50.055Z,90.20
2017-12-03T05:00:19.684Z,90.10
2017-12-03T05:02:49.449Z,90.00
2017-12-03T05:05:19.303Z,90.30
2017-12-03T05:07:49.221Z,90.20
2017-12-03T05:10:19.218Z,90.10
2017-12-03T05:12:49.065Z,90.20
2017-12-03T05:15:19.484Z,90.00
2017-12-03T05:17:49.096Z,90.00
2017-12-03T05:20:19.521Z,90.00
2017-12-03T05:22:49.167Z,90.00
2017-12-03T05:25:19.029Z,90.10
2017-12-03T05:27:48.821Z,90.40
2017-12-03T05:30:18.736Z,90.30
2017-12-03T05:32:49.058Z,90.60
2017-12-03T05:35:18.768Z,90.50
2017-12-03T05:37:48.408Z,90.40
2017-12-03T05:40:18.017Z,90.40
2017-12-03T05:42:47.617Z,90.50
2017-12-03T05:45:18.017Z,90.50
2017-12-03T05:47:47.725Z,90.50
2017-12-03T05:50:17.276Z,90.50
2017-12-03T05:52:47.342Z,90.50
2017-12-03T05:55:16.997Z,90.40
2017-12-03T05:57:47.392Z,91.00
2017-12-03T06:00:17.090Z,91.00
2017-12-03T06:02:46.814Z,90.90
2017-12-03T06:05:17.128Z,90.80
2017-12-03T06:07:47.581Z,90.90
2017-12-03T06:10:17.267Z,90.80
2017-12-03T06:12:47.076Z,91.00
2017-12-03T06:15:16.918Z,91.10
2017-12-03T06:17:47.363Z,90.90
2017-12-03T06:20:17.181Z,90.90
2017-12-03T06:22:47.740Z,90.80
2017-12-03T06:25:17.385Z,90.90
2017-12-03T06:27:47.052Z,90.80
2017-12-03T06:30:16.973Z,90.70
2017-12-03T06:32:46.712Z,90.70
2017-12-03T06:35:16.435Z,90.70
2017-12-03T06:37:47.173Z,91.00
2017-12-03T06:40:16.954Z,90.90
2017-12-03T06:42:48.227Z,90.70
2017-12-03T06:45:19.436Z,90.60
2017-12-03T06:47:49.154Z,90.60
2017-12-03T06:50:18.981Z,90.50
2017-12-03T06:52:48.771Z,90.20
2017-12-03T06:55:18.686Z,90.30
2017-12-03T06:57:48.821Z,90.30
2017-12-03T07:00:19.124Z,90.20
2017-12-03T07:02:48.961Z,90.00
2017-12-03T07:05:18.675Z,90.10
2017-12-03T07:07:49.200Z,90.10
2017-12-03T07:10:18.798Z,90.00
2017-12-03T07:12:49.220Z,90.00
2017-12-03T07:15:19.165Z,89.70
2017-12-03T07:17:49.680Z,89.90
2017-12-03T07:20:19.466Z,89.90
2017-12-03T07:22:49.174Z,90.00
2017-12-03T07:25:18.889Z,90.00
2017-12-03T07:27:48.929Z,89.90
2017-12-03T07:30:18.572Z,89.80
2017-12-03T07:32:48.346Z,89.80
2017-12-03T07:35:18.542Z,90.10
2017-12-03T07:37:48.387Z,89.90
2017-12-03T07:40:18.308Z,89.70
2017-12-03T07:42:48.205Z,90.00
2017-12-03T07:45:18.708Z,90.30
2017-12-03T07:47:48.602Z,90.30
2017-12-03T07:50:18.436Z,90.30
2017-12-03T07:52:48.277Z,90.20
2017-12-03T07:55:18.796Z,90.10
2017-12-03T07:57:48.587Z,90.10
2017-12-03T08:00:18.420Z,89.40
2017-12-03T08:02:49.036Z,89.60
2017-12-03T08:05:18.943Z,89.40
2017-12-03T08:07:49.071Z,89.40
2017-12-03T08:10:18.772Z,89.20
2017-12-03T08:12:48.488Z,89.20
2017-12-03T08:15:18.320Z,89.10
2017-12-03T08:17:48.233Z,89.10
2017-12-03T08:20:18.771Z,89.70
2017-12-03T08:22:49.300Z,88.70
2017-12-03T08:25:19.846Z,88.80
2017-12-03T08:27:49.642Z,88.80
2017-12-03T08:30:19.314Z,88.90
2017-12-03T08:32:49.649Z,88.80
2017-12-03T08:35:20.902Z,88.20
2017-12-03T08:37:51.722Z,88.20
2017-12-03T08:40:21.504Z,88.20
2017-12-03T08:42:51.755Z,88.30
2017-12-03T08:45:21.462Z,88.20
2017-12-03T08:47:51.425Z,87.90
2017-12-03T08:50:21.420Z,87.90
2017-12-03T08:52:52.219Z,87.70
2017-12-03T08:55:22.552Z,87.60
2017-12-03T08:57:52.388Z,87.20
2017-12-03T09:00:22.381Z,87.00
2017-12-03T09:02:52.184Z,86.80
2017-12-03T09:05:22.335Z,86.80
2017-12-03T09:07:52.344Z,86.70
2017-12-03T09:10:22.560Z,86.50
2017-12-03T09:12:52.495Z,86.40
2017-12-03T09:15:23.100Z,86.40
2017-12-03T09:17:53.829Z,86.60
2017-12-03T09:20:23.672Z,86.50
2017-12-03T09:22:54.444Z,87.20
2017-12-03T09:25:24.391Z,86.70
2017-12-03T09:27:54.305Z,86.80
2017-12-03T09:30:24.236Z,86.50
2017-12-03T09:32:54.009Z,86.40
2017-12-03T09:35:24.122Z,86.50
2017-12-03T09:37:54.584Z,86.60
2017-12-03T09:40:24.694Z,86.40
2017-12-03T09:42:54.379Z,86.10
2017-12-03T09:45:24.319Z,86.40
2017-12-03T09:47:54.231Z,90.10
2017-12-03T09:50:24.362Z,87.90
2017-12-03T09:52:54.017Z,86.50
2017-12-03T09:55:23.777Z,86.50
2017-12-03T09:58:12.393Z,85.80
2017-12-03T10:01:02.912Z,85.80
2017-12-03T10:03:33.984Z,85.70
2017-12-03T10:06:05.206Z,86.00
2017-12-03T10:08:35.124Z,86.00
2017-12-03T10:11:05.589Z,86.30
2017-12-03T10:13:35.775Z,85.50
2017-12-03T10:16:07.061Z,85.60
2017-12-03T10:18:37.031Z,85.40
2017-12-03T10:21:07.152Z,85.40
2017-12-03T10:23:37.115Z,85.20
2017-12-03T10:26:07.314Z,85.20
2017-12-03T10:28:38.186Z,85.10
2017-12-03T10:31:08.783Z,85.10
2017-12-03T10:33:39.383Z,85.10
2017-12-03T10:36:09.501Z,85.10
2017-12-03T10:38:39.960Z,85.10
2017-12-03T10:41:10.763Z,85.20
2017-12-03T10:43:40.678Z,85.20
2017-12-03T10:46:10.525Z,85.30
2017-12-03T10:48:41.255Z,85.00
2017-12-03T10:51:11.931Z,85.70
2017-12-03T10:53:41.685Z,85.60
2017-12-03T10:56:12.445Z,85.00
2017-12-03T10:58:43.045Z,85.00
2017-12-03T11:01:13.733Z,85.00
2017-12-03T11:03:43.800Z,84.90
2017-12-03T11:06:15.562Z,85.00
2017-12-03T11:08:45.297Z,85.00
2017-12-03T11:11:15.262Z,85.60
2017-12-03T11:13:45.105Z,85.90
2017-12-03T11:16:15.708Z,85.90
2017-12-03T11:18:45.766Z,85.30
2017-12-03T11:21:16.899Z,86.30
2017-12-03T11:23:46.684Z,86.30
2017-12-03T11:26:17.938Z,87.50
2017-12-03T11:28:48.611Z,85.50
2017-12-03T11:31:18.476Z,85.50
2017-12-03T11:33:48.093Z,86.00
2017-12-03T11:36:18.092Z,85.70
2017-12-03T11:38:47.801Z,85.30
2017-12-03T11:41:17.718Z,85.10
2017-12-03T11:43:59.011Z,85.40
2017-12-03T11:46:37.932Z,85.30
2017-12-03T11:49:08.348Z,86.00
2017-12-03T11:51:38.084Z,85.50
2017-12-03T11:54:07.816Z,86.00
2017-12-03T11:56:37.598Z,86.20
2017-12-03T11:59:08.218Z,85.10
2017-12-03T12:01:38.049Z,85.10
2017-12-03T12:04:08.859Z,90.80
2017-12-03T12:06:38.569Z,91.40
2017-12-03T12:09:08.942Z,91.30
2017-12-03T12:11:38.930Z,90.20
2017-12-03T12:14:08.923Z,88.50
2017-12-03T12:16:38.760Z,86.30
2017-12-03T12:19:09.123Z,87.00
2017-12-03T12:21:39.889Z,87.00
2017-12-03T12:24:09.532Z,86.50
2017-12-03T12:26:40.018Z,87.30
2017-12-03T12:29:11.416Z,87.30
2017-12-03T12:31:42.086Z,87.20
2017-12-03T12:34:11.925Z,87.20
2017-12-03T12:36:42.048Z,88.00
2017-12-03T12:39:12.107Z,87.80
2017-12-03T12:41:42.023Z,87.60
2017-12-03T12:44:11.968Z,87.10
2017-12-03T12:46:42.046Z,86.80
2017-12-03T12:49:12.772Z,86.40
2017-12-03T12:51:43.578Z,86.60
2017-12-03T12:54:14.292Z,86.60
2017-12-03T12:56:44.363Z,86.40
2017-12-03T12:59:15.160Z,86.40
2017-12-03T13:01:44.929Z,86.30
2017-12-03T13:04:14.510Z,86.60
2017-12-03T13:06:45.473Z,88.20
2017-12-03T13:09:15.640Z,88.20
2017-12-03T13:11:45.484Z,86.90
2017-12-03T13:14:16.181Z,87.10
2017-12-03T13:16:46.328Z,87.10
2017-12-03T13:19:16.250Z,87.10
2017-12-03T13:21:46.371Z,86.50
2017-12-03T13:24:16.146Z,86.50
2017-12-03T13:26:46.265Z,87.10
2017-12-03T13:29:17.166Z,86.90
2017-12-03T13:31:46.921Z,86.80
2017-12-03T13:34:16.745Z,86.30
2017-12-03T13:36:47.254Z,86.00
2017-12-03T13:39:17.578Z,86.50
2017-12-03T13:41:47.494Z,86.50
2017-12-03T13:44:18.784Z,86.40
2017-12-03T13:46:48.773Z,86.40
2017-12-03T13:49:18.877Z,86.10
2017-12-03T13:51:49.209Z,85.80
2017-12-03T13:54:19.313Z,85.90
2017-12-03T13:56:49.288Z,85.80
2017-12-03T13:59:19.257Z,86.00
2017-12-03T14:01:49.886Z,86.70
2017-12-03T14:04:20.404Z,86.70
2017-12-03T14:06:50.228Z,86.40
2017-12-03T14:09:21.899Z,86.50
2017-12-03T14:11:51.819Z,86.50
2017-12-03T14:14:21.710Z,86.00
2017-12-03T14:16:52.391Z,86.60
2017-12-03T14:19:23.380Z,87.10
2017-12-03T14:21:53.428Z,86.60
2017-12-03T14:24:24.068Z,87.00
2017-12-03T14:26:55.919Z,86.80
2017-12-03T14:29:26.876Z,86.80
2017-12-03T14:31:56.778Z,86.80
2017-12-03T14:34:28.424Z,87.00
2017-12-03T14:36:58.450Z,89.40
2017-12-03T14:39:28.143Z,90.20
2017-12-03T14:41:58.118Z,90.00
2017-12-03T14:44:27.838Z,89.30
2017-12-03T14:46:57.889Z,89.40
2017-12-03T14:49:29.715Z,89.10
2017-12-03T14:52:00.457Z,89.00
2017-12-03T14:54:32.006Z,88.80
2017-12-03T14:57:04.375Z,88.70
2017-12-03T14:59:34.395Z,88.70
2017-12-03T15:02:04.407Z,88.70
2017-12-03T15:04:35.185Z,88.70
2017-12-03T15:07:05.669Z,88.50
2017-12-03T15:09:35.582Z,88.40
2017-12-03T15:12:05.703Z,88.50
2017-12-03T15:14:35.617Z,88.60
2017-12-03T15:17:05.859Z,88.50
2017-12-03T15:19:37.221Z,88.30
2017-12-03T15:22:08.128Z,88.30
2017-12-03T15:24:38.961Z,88.30
2017-12-03T15:27:10.402Z,88.30
2017-12-03T15:29:40.612Z,88.20
2017-12-03T15:32:10.749Z,88.30
2017-12-03T15:34:41.220Z,88.10
2017-12-03T15:37:11.295Z,88.20
2017-12-03T15:39:41.396Z,88.10
2017-12-03T15:42:11.640Z,88.00
2017-12-03T15:44:41.846Z,88.00
2017-12-03T15:47:12.697Z,88.00
2017-12-03T15:49:48.749Z,88.00
2017-12-03T15:52:21.121Z,88.00
2017-12-03T15:54:51.445Z,88.00
2017-12-03T15:57:22.311Z,88.00
2017-12-03T15:59:52.744Z,87.80
2017-12-03T16:02:24.570Z,87.60
2017-12-03T16:04:54.824Z,87.60
2017-12-03T16:07:24.956Z,87.70
2017-12-03T16:09:54.719Z,87.90
2017-12-03T16:12:24.711Z,87.70
2017-12-03T16:14:54.903Z,87.60
2017-12-03T16:17:25.134Z,87.60
2017-12-03T16:19:55.399Z,87.50
2017-12-03T16:22:25.520Z,87.50
2017-12-03T16:24:55.568Z,87.60
2017-12-03T16:27:25.861Z,87.60
2017-12-03T16:29:56.508Z,87.30
2017-12-03T16:32:27.668Z,87.30
2017-12-03T16:34:57.823Z,87.30
2017-12-03T16:37:28.078Z,87.20
2017-12-03T16:39:58.026Z,87.10
2017-12-03T16:42:29.724Z,87.10
2017-12-03T16:44:59.662Z,87.20
2017-12-03T16:47:29.581Z,87.10
2017-12-03T16:49:59.434Z,87.20
2017-12-03T16:52:29.413Z,87.20
2017-12-03T16:55:01.054Z,87.60
2017-12-03T16:57:31.237Z,87.50
2017-12-03T17:00:01.161Z,87.30
2017-12-03T17:02:31.241Z,87.50
2017-12-03T17:05:01.060Z,87.60
2017-12-03T17:07:30.834Z,87.60
2017-12-03T17:10:00.780Z,87.50
2017-12-03T17:12:32.568Z,87.70
2017-12-03T17:15:02.326Z,87.70
2017-12-03T17:17:31.963Z,87.90
2017-12-03T17:20:02.693Z,88.00
2017-12-03T17:22:32.886Z,88.00
2017-12-03T17:25:03.717Z,87.80
2017-12-03T17:27:34.145Z,87.80
2017-12-03T17:30:04.149Z,87.90
2017-12-03T17:32:34.118Z,87.80
2017-12-03T17:35:05.732Z,88.00
2017-12-03T17:37:35.590Z,88.00
2017-12-03T17:40:06.139Z,88.00
2017-12-03T17:42:36.088Z,88.00
2017-12-03T17:45:06.031Z,88.00
2017-12-03T17:47:36.121Z,88.00
2017-12-03T17:50:06.202Z,88.00
2017-12-03T17:52:36.356Z,87.60
2017-12-03T17:55:06.481Z,87.80
2017-12-03T17:57:37.284Z,87.70
2017-12-03T18:00:08.296Z,87.80
2017-12-03T18:02:38.473Z,87.90
2017-12-03T18:05:08.595Z,87.70
2017-12-03T18:07:38.542Z,87.70
2017-12-03T18:10:08.671Z,87.70
2017-12-03T18:12:38.477Z,87.70
2017-12-03T18:15:09.838Z,87.50
2017-12-03T18:17:40.968Z,87.40
2017-12-03T18:20:14.223Z,87.40
2017-12-03T18:22:45.688Z,87.50
2017-12-03T18:25:16.509Z,87.50
2017-12-03T18:27:46.519Z,87.60
2017-12-03T18:30:16.753Z,87.10
2017-12-03T18:32:46.616Z,87.10
2017-12-03T18:35:17.345Z,87.20
2017-12-03T18:37:47.483Z,87.20
2017-12-03T18:40:17.424Z,87.40
2017-12-03T18:42:48.158Z,87.20
2017-12-03T18:45:18.278Z,87.40
2017-12-03T18:47:48.398Z,87.50
2017-12-03T18:50:19.872Z,87.70
2017-12-03T18:52:51.304Z,87.90
2017-12-03T18:55:24.076Z,87.90
2017-12-03T18:57:56.628Z,87.90
2017-12-03T19:00:27.113Z,87.80
2017-12-03T19:02:58.748Z,87.80
2017-12-03T19:05:29.539Z,87.70
2017-12-03T19:08:00.000Z,87.80
2017-12-03T19:10:30.563Z,87.60
2017-12-03T19:13:00.444Z,87.80
2017-12-03T19:15:30.411Z,87.80
2017-12-03T19:18:01.391Z,87.80
2017-12-03T19:20:31.822Z,87.70
2017-12-03T19:23:02.282Z,87.40
2017-12-03T19:25:33.021Z,87.20
2017-12-03T19:28:04.024Z,87.40
2017-12-03T19:30:33.911Z,87.40
2017-12-03T19:33:03.850Z,87.50
2017-12-03T19:35:33.693Z,87.30
2017-12-03T19:38:04.225Z,88.20
2017-12-03T19:40:34.005Z,87.50
2017-12-03T19:43:04.176Z,87.50
2017-12-03T19:45:34.390Z,87.50
2017-12-03T19:48:05.072Z,87.30
2017-12-03T19:50:34.896Z,87.30
2017-12-03T19:53:04.942Z,87.40
2017-12-03T19:55:35.746Z,87.50
2017-12-03T19:58:07.841Z,87.20
2017-12-03T20:00:38.408Z,87.30
2017-12-03T20:03:08.460Z,87.10
2017-12-03T20:05:39.292Z,86.90
2017-12-03T20:08:09.125Z,86.70
2017-12-03T20:10:38.916Z,86.70
2017-12-03T20:13:10.465Z,86.50
2017-12-03T20:15:41.303Z,86.50
2017-12-03T20:18:11.321Z,86.50
2017-12-03T20:20:41.028Z,86.30
2017-12-03T20:23:10.943Z,86.40
2017-12-03T20:25:40.856Z,86.40
2017-12-03T20:28:11.179Z,86.70
2017-12-03T20:30:42.068Z,86.50
2017-12-03T20:33:11.979Z,86.50
2017-12-03T20:35:42.150Z,86.70
2017-12-03T20:38:12.113Z,86.50
2017-12-03T20:40:41.902Z,86.70
2017-12-03T20:43:14.102Z,86.60
2017-12-03T20:45:44.470Z,86.60
2017-12-03T20:48:14.660Z,86.60
2017-12-03T20:50:44.922Z,86.40
2017-12-03T20:53:15.331Z,87.00
2017-12-03T20:55:45.217Z,86.90
2017-12-03T20:58:15.272Z,87.00
2017-12-03T21:00:45.434Z,87.70
2017-12-03T21:03:15.510Z,86.90
2017-12-03T21:05:45.422Z,87.20
2017-12-03T21:08:16.727Z,87.10
2017-12-03T21:10:47.095Z,87.10
2017-12-03T21:13:17.162Z,86.90
2017-12-03T21:15:47.047Z,87.10
2017-12-03T21:18:17.801Z,87.30
2017-12-03T21:20:48.398Z,86.80
2017-12-03T21:23:18.920Z,86.80
2017-12-03T21:25:51.084Z,86.80
2017-12-03T21:28:21.006Z,86.70
2017-12-03T21:30:51.063Z,86.70
2017-12-03T21:33:21.851Z,86.80
2017-12-03T21:35:51.697Z,87.00
2017-12-03T21:38:22.642Z,86.70
2017-12-03T21:40:52.542Z,86.70
2017-12-03T21:43:24.272Z,87.40
2017-12-03T21:45:54.091Z,86.80
2017-12-03T21:48:23.741Z,86.90
2017-12-03T21:50:53.638Z,86.80
2017-12-03T21:53:24.444Z,87.20
2017-12-03T21:55:54.286Z,87.20
2017-12-03T21:58:24.883Z,87.30
2017-12-03T22:00:54.594Z,87.20
2017-12-03T22:03:24.236Z,87.30
2017-12-03T22:05:54.749Z,86.80
2017-12-03T22:08:26.129Z,87.00
2017-12-03T22:10:56.094Z,87.10
2017-12-03T22:13:26.426Z,87.00
2017-12-03T22:15:56.741Z,86.80
2017-12-03T22:18:26.655Z,86.90
2017-12-03T22:20:56.544Z,86.90
2017-12-03T22:23:27.876Z,86.70
2017-12-03T22:25:57.627Z,86.70
2017-12-03T22:28:27.864Z,86.70
2017-12-03T22:30:57.782Z,86.70
2017-12-03T22:33:28.598Z,87.10
2017-12-03T22:35:58.643Z,87.10
2017-12-03T22:38:29.257Z,87.00
2017-12-03T22:41:00.668Z,86.70
2017-12-03T22:43:31.942Z,86.70
2017-12-03T22:46:01.722Z,86.90
2017-12-03T22:48:31.953Z,87.10
2017-12-03T22:51:02.218Z,87.00
2017-12-03T22:53:32.761Z,87.00
2017-12-03T22:56:03.264Z,86.80
2017-12-03T22:58:32.856Z,86.80
2017-12-03T23:01:03.216Z,87.00
2017-12-03T23:03:32.861Z,86.80
2017-12-03T23:06:02.735Z,86.50
2017-12-03T23:08:33.664Z,86.70
2017-12-03T23:11:03.529Z,86.70
2017-12-03T23:13:33.368Z,86.90
2017-12-03T23:16:03.283Z,86.60
2017-12-03T23:18:33.730Z,87.00
2017-12-03T23:21:04.140Z,87.50
2017-12-03T23:23:33.977Z,87.00
2017-12-03T23:26:04.377Z,86.70
2017-12-03T23:28:35.108Z,86.90
2017-12-03T23:31:05.844Z,87.10
2017-12-03T23:33:35.963Z,86.80
2017-12-03T23:36:06.081Z,86.70
2017-12-03T23:38:35.790Z,86.60
2017-12-03T23:41:06.318Z,86.70
2017-12-03T23:43:36.232Z,86.60
2017-12-03T23:46:06.147Z,86.70
2017-12-03T23:48:36.015Z,86.40
2017-12-03T23:51:05.973Z,86.50
2017-12-03T23:53:37.522Z,86.50
2017-12-03T23:56:09.066Z,86.50
2017-12-03T23:58:39.705Z,86.90
